Time;durP1;ratioP1;P1;durP2;ratioP2;P2;SDS_P1;SDS_P2;PMS_P1;PMS_P2;Temp;Humidity;BMP_temperature;BMP_pressure;BME280_temperature;BME280_humidity;BME280_pressure;Samples;Min_cycle;Max_cycle;Signal;HPM_P1;HPM_P2
2022/01/18 00:02:00;;;;;;;48.22;8.35;;;5.00;97.40;;;;;;5120338;27;20130;-78
2022/01/18 00:04:28;;;;;;;47.20;8.55;;;5.00;97.40;;;;;;5136686;27;20031;-78
2022/01/18 00:06:54;;;;;;;45.25;7.50;;;5.00;97.50;;;;;;5136646;27;20076;-78
2022/01/18 00:09:22;;;;;;;50.30;8.30;;;5.00;97.40;;;;;;5153704;27;20035;-79
2022/01/18 00:12:29;;;;;;;42.08;8.15;;;5.10;97.40;;;;;;5153752;27;20042;-78
2022/01/18 00:14:44;;;;;;;36.20;7.88;;;5.00;97.40;;;;;;5152862;27;20130;-79
2022/01/18 00:17:18;;;;;;;36.55;6.35;;;5.00;97.50;;;;;;5153201;27;20046;-78
2022/01/18 00:19:53;;;;;;;;;;;5.00;97.50;;;;;;5153700;27;20045;-78
2022/01/18 00:22:19;;;;;;;51.08;7.60;;;4.90;97.50;;;;;;5153319;27;19974;-78
2022/01/18 00:24:45;;;;;;;51.05;8.68;;;4.90;97.50;;;;;;5154020;27;20388;-78
2022/01/18 00:27:14;;;;;;;41.53;7.80;;;4.90;97.60;;;;;;5153757;27;20121;-78
2022/01/18 00:29:52;;;;;;;47.83;8.98;;;4.90;97.60;;;;;;5153673;27;20367;-78
2022/01/18 00:32:38;;;;;;;40.60;9.43;;;5.00;97.60;;;;;;5153410;27;20046;-78
2022/01/18 00:35:04;;;;;;;63.15;9.85;;;5.00;97.60;;;;;;5142757;27;20125;-78
2022/01/18 00:37:36;;;;;;;48.53;7.80;;;5.00;97.60;;;;;;5140376;27;20077;-78
2022/01/18 00:40:04;;;;;;;57.40;8.05;;;5.00;97.60;;;;;;5124750;27;20507;-78
2022/01/18 00:42:30;;;;;;;42.28;7.35;;;5.00;97.60;;;;;;5140442;27;20397;-78
2022/01/18 00:44:56;;;;;;;59.10;9.30;;;4.90;97.70;;;;;;5157816;27;20371;-78
2022/01/18 00:47:22;;;;;;;41.20;8.70;;;4.90;97.70;;;;;;5157319;27;20034;-78
2022/01/18 00:49:55;;;;;;;37.40;7.32;;;4.90;97.70;;;;;;5139978;27;20042;-78
2022/01/18 00:52:21;;;;;;;47.40;9.60;;;5.00;97.90;;;;;;5157319;27;20043;-78
2022/01/18 00:54:47;;;;;;;45.53;7.63;;;5.00;97.90;;;;;;5139342;27;20046;-78
2022/01/18 00:57:13;;;;;;;36.00;6.82;;;5.00;97.90;;;;;;5157541;27;20130;-78
2022/01/18 00:59:40;;;;;;;40.92;7.20;;;5.10;98.00;;;;;;5140273;27;20505;-79
2022/01/18 01:02:08;;;;;;;39.60;6.38;;;5.10;98.00;;;;;;5157385;27;20095;-79
2022/01/18 01:04:39;;;;;;;43.85;8.38;;;5.10;97.90;;;;;;5140730;27;20035;-79
2022/01/18 01:07:05;;;;;;;32.03;6.38;;;5.10;97.90;;;;;;5157216;27;20099;-78
2022/01/18 01:09:32;;;;;;;39.42;6.53;;;5.20;98.00;;;;;;5157157;27;20099;-78
2022/01/18 01:11:59;;;;;;;40.47;7.72;;;5.20;97.90;;;;;;5140246;27;20043;-78
2022/01/18 01:14:26;;;;;;;36.40;6.75;;;5.20;97.90;;;;;;5140232;27;20039;-79
2022/01/18 01:35:13;;;;;;;35.95;6.47;;;5.10;98.00;;;;;;5156144;27;20039;-79
2022/01/18 01:45:39;;;;;;;40.45;5.95;;;5.10;98.10;;;;;;5154989;27;19919;-79
2022/01/18 01:48:04;;;;;;;38.80;7.88;;;5.10;98.10;;;;;;5156271;27;20042;-79
2022/01/18 01:51:06;;;;;;;41.08;7.15;;;5.10;98.10;;;;;;5138854;27;20031;-79
2022/01/18 01:53:25;;;;;;;38.47;8.75;;;5.00;98.10;;;;;;5152184;27;20039;-79
2022/01/18 01:55:52;;;;;;;33.17;6.32;;;5.00;98.10;;;;;;5156269;27;20493;-79
2022/01/18 01:58:23;;;;;;;40.92;8.23;;;5.00;98.10;;;;;;5121451;27;20035;-79
2022/01/18 02:00:52;;;;;;;41.78;7.63;;;4.90;98.10;;;;;;5155854;27;20077;-79
2022/01/18 02:03:19;;;;;;;39.05;6.35;;;4.90;98.10;;;;;;5155878;27;20039;-79
2022/01/18 02:05:45;;;;;;;37.83;7.25;;;4.80;98.10;;;;;;5156072;27;20423;-79
2022/01/18 02:08:13;;;;;;;42.35;7.35;;;4.80;98.10;;;;;;5138720;27;20042;-79
2022/01/18 02:10:40;;;;;;;35.28;6.72;;;4.80;98.10;;;;;;5155745;27;20039;-79
2022/01/18 02:13:07;;;;;;;27.80;5.75;;;4.70;98.10;;;;;;5155645;27;20047;-79
2022/01/18 02:15:41;;;;;;;36.67;7.38;;;4.70;98.10;;;;;;5155689;27;20049;-79
2022/01/18 02:23:54;;;;;;;37.00;6.65;;;4.60;98.20;;;;;;5076117;28;20036;-79
2022/01/18 02:26:20;;;;;;;35.47;6.82;;;4.60;98.20;;;;;;5059104;28;20547;-79
2022/01/18 02:28:46;;;;;;;36.90;6.63;;;4.60;98.20;;;;;;5094024;27;20157;-80
2022/01/18 02:31:12;;;;;;;42.83;7.38;;;4.60;98.20;;;;;;5155239;27;20046;-80
2022/01/18 02:33:37;;;;;;;36.35;7.25;;;4.60;98.20;;;;;;5155565;27;20038;-79
2022/01/18 02:36:07;;;;;;;32.67;7.03;;;4.60;98.20;;;;;;5155404;27;20394;-79
2022/01/18 02:38:33;;;;;;;32.20;7.43;;;4.60;98.30;;;;;;5137784;27;20492;-79
2022/01/18 02:40:59;;;;;;;32.35;6.50;;;4.60;98.30;;;;;;5137800;27;20062;-80
2022/01/18 02:46:11;;;;;;;41.55;6.30;;;4.50;98.40;;;;;;5155152;27;20039;-79
2022/01/18 02:48:37;;;;;;;34.78;5.47;;;4.60;98.40;;;;;;5120844;27;20046;-79
2022/01/18 02:51:03;;;;;;;37.75;6.32;;;4.60;98.40;;;;;;5154947;27;20035;-79
2022/01/18 02:53:29;;;;;;;30.83;5.82;;;4.60;98.40;;;;;;5154934;27;20490;-80
2022/01/18 02:55:58;;;;;;;30.52;4.82;;;4.70;98.40;;;;;;5137795;27;20138;-79
2022/01/18 02:58:32;;;;;;;30.85;5.65;;;4.70;98.40;;;;;;5154767;27;20038;-79
2022/01/18 03:03:30;;;;;;;34.85;5.85;;;4.80;98.40;;;;;;5155141;27;20046;-79
2022/01/18 03:05:57;;;;;;;25.55;5.20;;;4.90;98.40;;;;;;5137365;27;20073;-80
2022/01/18 03:08:24;;;;;;;24.13;5.40;;;4.90;98.50;;;;;;5137574;27;20042;-80
2022/01/18 03:10:50;;;;;;;25.50;4.70;;;5.00;98.50;;;;;;5137308;27;20053;-80
2022/01/18 03:13:17;;;;;;;32.00;5.70;;;5.00;98.40;;;;;;5154822;27;20129;-80
2022/01/18 03:15:43;;;;;;;30.75;5.35;;;5.10;98.40;;;;;;5137215;27;20103;-80
2022/01/18 03:18:09;;;;;;;41.35;5.88;;;5.10;98.40;;;;;;5137021;27;20042;-79
2022/01/18 03:20:36;;;;;;;38.50;5.28;;;5.10;98.40;;;;;;5154574;27;20042;-80
2022/01/18 03:23:06;;;;;;;38.47;5.63;;;5.10;98.40;;;;;;5137104;27;20080;-79
2022/01/18 03:28:05;;;;;;;28.27;5.55;;;5.00;98.30;;;;;;5154178;27;20038;-79
2022/01/18 03:30:42;;;;;;;30.60;5.18;;;4.90;98.30;;;;;;5154424;27;20546;-80
2022/01/18 03:33:10;;;;;;;25.42;4.93;;;5.00;98.40;;;;;;5137180;27;20030;-80
2022/01/18 03:35:36;;;;;;;28.83;4.65;;;5.00;98.40;;;;;;5137017;27;20035;-79
2022/01/18 03:38:03;;;;;;;23.48;5.47;;;5.00;98.40;;;;;;5136779;27;20497;-80
2022/01/18 03:40:29;;;;;;;19.02;4.43;;;5.00;98.40;;;;;;5119533;27;20057;-79
2022/01/18 03:42:55;;;;;;;27.20;5.07;;;5.00;98.40;;;;;;5154028;27;20039;-80
2022/01/18 03:45:24;;;;;;;26.42;4.57;;;5.00;98.40;;;;;;5154161;27;20053;-80
2022/01/18 03:47:50;;;;;;;34.72;5.75;;;5.00;98.50;;;;;;5136567;27;20039;-79
2022/01/18 03:50:17;;;;;;;23.75;4.75;;;5.00;98.50;;;;;;5136673;27;20030;-80
2022/01/18 03:52:44;;;;;;;27.67;4.20;;;5.00;98.50;;;;;;5136781;27;20133;-80
2022/01/18 03:55:11;;;;;;;18.50;4.03;;;5.00;98.50;;;;;;5136784;27;20440;-79
2022/01/18 03:57:38;;;;;;;30.65;5.18;;;5.10;98.50;;;;;;5153825;27;20081;-79
2022/01/18 04:00:07;;;;;;;30.45;4.35;;;5.00;98.40;;;;;;5153708;27;20088;-79
2022/01/18 04:02:33;;;;;;;25.20;4.05;;;5.10;98.40;;;;;;5153573;27;20066;-80
2022/01/18 04:05:00;;;;;;;19.33;4.88;;;5.10;98.50;;;;;;5119585;27;20035;-80
2022/01/18 04:07:26;;;;;;;22.10;5.70;;;5.10;98.40;;;;;;5153404;27;20039;-80
2022/01/18 04:09:51;;;;;;;22.33;4.28;;;5.10;98.50;;;;;;5152844;27;20041;-80
2022/01/18 04:12:17;;;;;;;23.67;4.80;;;5.10;98.50;;;;;;5153534;27;20047;-79
2022/01/18 04:14:43;;;;;;;28.17;4.95;;;5.10;98.40;;;;;;5153474;27;20042;-80
2022/01/18 04:27:53;;;;;;;28.75;6.20;;;5.00;98.40;;;;;;5153306;27;20035;-79
2022/01/18 04:30:21;;;;;;;24.98;5.18;;;5.00;98.40;;;;;;5137661;27;20039;-80
2022/01/18 04:32:46;;;;;;;23.95;6.00;;;5.00;98.40;;;;;;5119301;27;20035;-80
2022/01/18 04:35:12;;;;;;;26.63;5.20;;;5.00;98.40;;;;;;5153331;27;20039;-80
2022/01/18 04:37:38;;;;;;;33.15;5.80;;;5.00;98.50;;;;;;5153242;27;20038;-80
2022/01/18 04:40:11;;;;;;;25.95;5.43;;;5.00;98.40;;;;;;5136017;27;20050;-80
2022/01/18 04:50:40;;;;;;;31.38;5.93;;;5.00;98.50;;;;;;5138795;27;20038;-80
2022/01/18 04:53:05;;;;;;;36.75;6.35;;;5.00;98.40;;;;;;5153109;27;20455;-80
2022/01/18 04:55:32;;;;;;;24.98;5.47;;;5.00;98.50;;;;;;5153102;27;20039;-80
2022/01/18 04:57:59;;;;;;;25.20;5.78;;;5.00;98.50;;;;;;5153050;27;20482;-80
2022/01/18 05:00:25;;;;;;;24.50;5.85;;;5.00;98.50;;;;;;5152997;27;20157;-79
2022/01/18 05:02:52;;;;;;;32.95;6.13;;;5.10;98.50;;;;;;5153041;27;20118;-79
2022/01/18 05:05:27;;;;;;;25.50;6.13;;;5.10;98.40;;;;;;5119095;27;20030;-80
2022/01/18 05:07:58;;;;;;;37.58;6.13;;;5.10;98.40;;;;;;5152992;27;20039;-79
2022/01/18 05:10:27;;;;;;;21.85;6.45;;;5.10;98.40;;;;;;5153253;27;20117;-80
2022/01/18 05:12:55;;;;;;;31.33;6.47;;;5.10;98.40;;;;;;5153035;27;20035;-80
2022/01/18 05:18:57;;;;;;;29.38;5.90;;;5.10;98.50;;;;;;5153064;27;20490;-80
2022/01/18 05:21:12;;;;;;;32.85;7.40;;;5.10;98.40;;;;;;5155492;27;20129;-80
2022/01/18 05:23:38;;;;;;;34.28;6.18;;;5.10;98.50;;;;;;5142067;27;20078;-80
2022/01/18 05:26:04;;;;;;;29.75;6.90;;;5.10;98.50;;;;;;5139436;27;20038;-80
2022/01/18 05:28:30;;;;;;;29.95;6.47;;;5.10;98.40;;;;;;5139184;27;20038;-80
2022/01/18 05:30:55;;;;;;;32.33;6.97;;;5.10;98.50;;;;;;5156882;27;20052;-80
2022/01/18 05:33:22;;;;;;;35.10;9.10;;;5.10;98.50;;;;;;5105139;27;20482;-80
2022/01/18 05:35:49;;;;;;;31.17;7.40;;;5.10;98.50;;;;;;5156466;27;20080;-80
2022/01/18 05:38:15;;;;;;;25.70;7.20;;;5.10;98.50;;;;;;5156379;27;20042;-80
2022/01/18 05:40:41;;;;;;;26.05;6.57;;;5.10;98.50;;;;;;5156314;27;20059;-80
2022/01/18 05:43:07;;;;;;;39.33;6.32;;;5.10;98.50;;;;;;5156270;27;20084;-80
2022/01/18 05:45:33;;;;;;;26.92;6.28;;;5.10;98.40;;;;;;5156327;27;20091;-80
2022/01/18 05:47:59;;;;;;;35.22;7.80;;;5.10;98.40;;;;;;5156127;27;20039;-80
2022/01/18 05:50:25;;;;;;;29.77;7.40;;;5.10;98.40;;;;;;5139128;27;20035;-80
2022/01/18 05:52:51;;;;;;;28.95;7.25;;;5.10;98.50;;;;;;5139114;27;20482;-81
2022/01/18 05:55:17;;;;;;;31.13;6.95;;;5.10;98.50;;;;;;5138809;27;20482;-80
2022/01/18 05:57:42;;;;;;;23.08;5.85;;;5.10;98.50;;;;;;5156013;27;20054;-80
2022/01/18 06:00:18;;;;;;;26.25;7.50;;;5.10;98.50;;;;;;5138775;27;20038;-80
2022/01/18 06:02:53;;;;;;;24.42;6.13;;;5.10;98.50;;;;;;5155970;27;20068;-80
2022/01/18 06:08:03;;;;;;;24.33;6.80;;;5.10;98.50;;;;;;5141378;27;20389;-80
2022/01/18 06:10:29;;;;;;;21.77;7.10;;;5.10;98.50;;;;;;5138512;27;20576;-80
2022/01/18 06:12:55;;;;;;;34.00;7.45;;;5.10;98.60;;;;;;5155773;27;20070;-80
2022/01/18 06:15:21;;;;;;;44.58;12.82;;;5.10;98.60;;;;;;5155684;27;20103;-81
2022/01/18 06:17:46;;;;;;;33.28;11.50;;;5.10;98.50;;;;;;5138208;27;20081;-80
2022/01/18 06:20:13;;;;;;;34.30;10.63;;;5.10;98.50;;;;;;5155932;27;20459;-80
2022/01/18 06:22:38;;;;;;;24.63;7.95;;;5.20;98.50;;;;;;5155446;27;20043;-80
2022/01/18 06:25:05;;;;;;;26.75;7.28;;;5.10;98.50;;;;;;5155797;27;20096;-80
2022/01/18 06:27:31;;;;;;;20.92;6.50;;;5.10;98.50;;;;;;5155328;27;20034;-80
2022/01/18 06:29:57;;;;;;;33.97;7.45;;;5.20;98.50;;;;;;5138361;27;20038;-81
2022/01/18 06:32:24;;;;;;;25.73;7.47;;;5.20;98.50;;;;;;5154690;27;20406;-80
2022/01/18 06:34:50;;;;;;;35.28;8.75;;;5.20;98.50;;;;;;5138675;27;20053;-79
2022/01/18 06:37:16;;;;;;;33.25;9.13;;;5.20;98.50;;;;;;5152340;27;20034;-81
2022/01/18 06:39:42;;;;;;;34.15;9.93;;;5.20;98.40;;;;;;5147034;27;20046;-80
2022/01/18 06:42:14;;;;;;;31.83;9.02;;;5.20;98.50;;;;;;5154802;27;20043;-80
2022/01/18 06:44:40;;;;;;;38.30;10.40;;;5.20;98.50;;;;;;5155409;27;20046;-80
2022/01/18 06:47:06;;;;;;;36.95;9.27;;;5.20;98.50;;;;;;5120996;27;20083;-80
2022/01/18 06:49:32;;;;;;;28.23;8.43;;;5.20;98.50;;;;;;5154919;27;20420;-80
2022/01/18 06:51:57;;;;;;;37.25;11.98;;;5.20;98.50;;;;;;5137760;27;20122;-80
2022/01/18 06:54:23;;;;;;;38.10;11.50;;;5.20;98.50;;;;;;5137723;27;20432;-80
2022/01/18 06:56:50;;;;;;;29.33;8.13;;;5.10;98.50;;;;;;5154799;27;20047;-80
2022/01/18 06:59:17;;;;;;;35.45;10.38;;;5.20;98.50;;;;;;5137273;27;20038;-80
2022/01/18 07:01:43;;;;;;;36.58;14.82;;;5.20;98.50;;;;;;5154698;27;20118;-80
2022/01/18 07:04:09;;;;;;;46.22;22.40;;;5.20;98.50;;;;;;5137408;27;20057;-81
2022/01/18 07:06:35;;;;;;;41.63;16.55;;;5.30;98.50;;;;;;5154608;27;20038;-81
2022/01/18 07:09:02;;;;;;;36.33;11.85;;;5.30;98.50;;;;;;5120474;27;20031;-80
2022/01/18 07:11:27;;;;;;;24.35;8.65;;;5.30;98.50;;;;;;5137315;27;20125;-80
2022/01/18 07:13:53;;;;;;;38.13;9.25;;;5.30;98.50;;;;;;5137281;27;20126;-81
2022/01/18 07:16:19;;;;;;;26.10;8.52;;;5.30;98.50;;;;;;5137182;27;20042;-81
2022/01/18 07:18:45;;;;;;;35.70;9.27;;;5.30;98.60;;;;;;5154368;27;20038;-80
2022/01/18 07:21:11;;;;;;;36.85;9.48;;;5.30;98.50;;;;;;5137206;27;20039;-80
2022/01/18 07:23:37;;;;;;;43.50;9.38;;;5.40;98.50;;;;;;5137039;27;20030;-81
2022/01/18 07:26:03;;;;;;;34.53;9.77;;;5.30;98.50;;;;;;5154329;27;20035;-80
2022/01/18 07:28:32;;;;;;;39.92;10.27;;;5.30;98.50;;;;;;5137206;27;20371;-80
2022/01/18 07:30:58;;;;;;;42.92;10.60;;;5.40;98.60;;;;;;5136441;27;20114;-80
2022/01/18 07:33:24;;;;;;;39.13;11.45;;;5.40;98.60;;;;;;5153619;27;20109;-81
2022/01/18 07:35:50;;;;;;;24.48;7.50;;;5.40;98.60;;;;;;5153993;27;20191;-79
2022/01/18 07:38:17;;;;;;;42.30;10.70;;;5.30;98.60;;;;;;5136993;27;20456;-81
2022/01/18 07:40:45;;;;;;;40.13;13.60;;;5.40;98.60;;;;;;5136376;27;20487;-80
2022/01/18 07:43:15;;;;;;;55.92;13.52;;;5.40;98.60;;;;;;5152968;27;20043;-81
2022/01/18 07:45:42;;;;;;;39.75;11.68;;;5.40;98.60;;;;;;5136671;27;20035;-81
2022/01/18 07:48:08;;;;;;;42.00;11.45;;;5.40;98.60;;;;;;5136131;27;20494;-81
2022/01/18 07:50:34;;;;;;;48.97;12.48;;;5.40;98.60;;;;;;5136223;27;20081;-79
2022/01/18 07:53:00;;;;;;;56.15;13.27;;;5.40;98.60;;;;;;5153196;27;20117;-80
2022/01/18 07:55:26;;;;;;;53.03;12.73;;;5.40;98.50;;;;;;5153560;27;20046;-81
2022/01/18 07:57:53;;;;;;;65.30;14.18;;;5.50;98.60;;;;;;5136383;27;20030;-80
2022/01/18 08:00:20;;;;;;;73.65;16.63;;;5.40;98.60;;;;;;5136407;27;20042;-80
2022/01/18 08:02:46;;;;;;;55.45;12.25;;;5.40;98.60;;;;;;5136298;27;20125;-80
2022/01/18 08:05:13;;;;;;;39.55;10.25;;;5.50;98.70;;;;;;5136409;27;20085;-80
2022/01/18 08:07:39;;;;;;;27.98;7.97;;;5.50;98.70;;;;;;5153746;27;20043;-80
2022/01/18 08:10:09;;;;;;;32.45;8.30;;;5.50;98.80;;;;;;5153600;27;20532;-80
2022/01/18 08:12:35;;;;;;;30.40;8.75;;;5.50;98.80;;;;;;5153473;27;20038;-80
2022/01/18 08:15:11;;;;;;;40.85;6.88;;;5.50;98.80;;;;;;5118651;27;20053;-80
2022/01/18 08:17:37;;;;;;;26.92;7.00;;;5.40;98.70;;;;;;5120624;27;20045;-80
2022/01/18 08:20:03;;;;;;;29.92;7.05;;;5.50;98.90;;;;;;5136212;27;20039;-80
2022/01/18 08:22:29;;;;;;;37.67;6.55;;;5.50;98.80;;;;;;5153587;27;20427;-80
2022/01/18 08:24:54;;;;;;;29.27;5.97;;;5.50;98.80;;;;;;5136155;27;20042;-80
2022/01/18 08:27:21;;;;;;;15.45;5.15;;;5.50;98.70;;;;;;5153349;27;20123;-80
2022/01/18 08:29:47;;;;;;;28.23;7.28;;;5.40;98.80;;;;;;5136127;27;20045;-80
2022/01/18 08:32:13;;;;;;;22.95;6.80;;;5.50;98.70;;;;;;5153359;27;20049;-80
2022/01/18 08:34:39;;;;;;;29.58;8.50;;;5.40;98.70;;;;;;5153316;27;20042;-80
2022/01/18 08:37:04;;;;;;;51.15;8.75;;;5.50;98.70;;;;;;5153175;27;20061;-80
2022/01/18 08:39:30;;;;;;;52.72;12.20;;;5.50;98.90;;;;;;5135705;27;20145;-79
2022/01/18 08:41:56;;;;;;;36.15;10.13;;;5.50;98.80;;;;;;5136101;27;20046;-80
2022/01/18 08:44:22;;;;;;;42.05;10.38;;;5.50;98.70;;;;;;5153240;27;20092;-80
2022/01/18 08:46:48;;;;;;;37.72;9.93;;;5.50;98.60;;;;;;5153392;27;20045;-80
2022/01/18 08:49:14;;;;;;;41.83;9.23;;;5.50;98.70;;;;;;5136241;27;20043;-80
2022/01/18 08:51:40;;;;;;;36.50;9.93;;;5.50;98.70;;;;;;5153135;27;20047;-80
2022/01/18 08:54:07;;;;;;;37.70;10.20;;;5.50;98.80;;;;;;5136130;27;20058;-80
2022/01/18 08:56:32;;;;;;;48.05;11.88;;;5.50;98.80;;;;;;5157163;27;20081;-78
2022/01/18 08:58:58;;;;;;;31.17;9.02;;;5.50;98.90;;;;;;5139923;27;20077;-78
2022/01/18 09:01:24;;;;;;;23.83;7.32;;;5.50;98.90;;;;;;5157066;27;20146;-78
2022/01/18 09:03:50;;;;;;;24.17;6.90;;;5.40;98.90;;;;;;5157399;27;20037;-79
2022/01/18 09:06:18;;;;;;;20.58;7.82;;;5.40;99.00;;;;;;5156980;27;20473;-79
2022/01/18 09:08:44;;;;;;;27.83;7.95;;;5.40;98.90;;;;;;5157281;27;20045;-79
2022/01/18 09:11:11;;;;;;;19.80;5.40;;;5.40;99.10;;;;;;5139620;27;20043;-79
2022/01/18 09:13:38;;;;;;;13.63;4.45;;;5.40;99.10;;;;;;5139724;27;20057;-79
2022/01/18 09:16:06;;;;;;;19.52;5.00;;;5.40;99.10;;;;;;5156833;27;20117;-79
2022/01/18 09:18:35;;;;;;;13.90;3.83;;;5.40;99.10;;;;;;5156620;27;20125;-79
2022/01/18 09:21:01;;;;;;;18.15;4.80;;;5.40;99.20;;;;;;5156636;27;20078;-79
2022/01/18 09:23:27;;;;;;;12.65;4.70;;;5.40;99.10;;;;;;5156779;27;20077;-79
2022/01/18 09:25:52;;;;;;;21.05;4.20;;;5.40;99.20;;;;;;5156673;27;20067;-79
2022/01/18 09:28:18;;;;;;;19.70;5.22;;;5.50;99.10;;;;;;5139260;27;20035;-80
2022/01/18 09:30:44;;;;;;;17.90;5.30;;;5.40;99.10;;;;;;5156563;27;20031;-79
2022/01/18 09:33:10;;;;;;;23.00;5.40;;;5.40;99.10;;;;;;5139282;27;20121;-78
2022/01/18 09:35:37;;;;;;;13.88;5.00;;;5.50;99.10;;;;;;5139394;27;20035;-79
2022/01/18 09:38:04;;;;;;;13.82;4.53;;;5.50;99.10;;;;;;5156652;27;20039;-80
2022/01/18 09:40:36;;;;;;;20.92;5.22;;;5.50;99.20;;;;;;5156418;27;20043;-80
2022/01/18 09:43:08;;;;;;;21.02;6.13;;;5.50;99.20;;;;;;5156447;27;20494;-80
2022/01/18 09:45:34;;;;;;;20.52;4.80;;;5.50;99.10;;;;;;5156656;27;20395;-80
2022/01/18 09:47:59;;;;;;;18.48;4.45;;;5.50;99.00;;;;;;5138905;27;20095;-80
2022/01/18 09:50:29;;;;;;;25.83;4.70;;;5.40;99.00;;;;;;5139303;27;20043;-80
2022/01/18 09:52:57;;;;;;;18.48;4.72;;;5.40;99.10;;;;;;5138923;27;20039;-80
2022/01/18 09:55:25;;;;;;;15.60;4.07;;;5.30;99.00;;;;;;5139043;27;20103;-80
2022/01/18 09:57:52;;;;;;;11.77;3.30;;;5.40;99.10;;;;;;5156005;27;20070;-80
2022/01/18 10:00:20;;;;;;;25.45;5.00;;;5.40;99.10;;;;;;5138749;27;20050;-80
2022/01/18 10:02:47;;;;;;;29.40;4.85;;;5.30;99.10;;;;;;5155924;27;20117;-80
2022/01/18 10:05:31;;;;;;;25.65;6.70;;;5.30;99.10;;;;;;5155916;27;20043;-80
2022/01/18 10:08:07;;;;;;;29.23;5.90;;;5.30;99.20;;;;;;5138064;27;20042;-80
2022/01/18 10:10:40;;;;;;;42.97;7.63;;;5.30;99.00;;;;;;5155797;27;20030;-80
2022/01/18 10:13:06;;;;;;;44.22;8.43;;;5.30;99.10;;;;;;5155776;27;20037;-80
2022/01/18 10:15:34;;;;;;;30.98;7.13;;;5.30;99.20;;;;;;5155762;27;20035;-80
2022/01/18 10:18:08;;;;;;;33.47;7.25;;;5.40;99.20;;;;;;5155528;27;20046;-79
2022/01/18 10:20:49;;;;;;;34.05;8.70;;;5.40;99.20;;;;;;5155562;27;20070;-80
2022/01/18 10:23:24;;;;;;;49.33;9.35;;;5.50;99.20;;;;;;5155873;27;20035;-80
2022/01/18 10:25:51;;;;;;;38.13;7.95;;;5.50;99.10;;;;;;5138299;27;20517;-80
2022/01/18 10:28:34;;;;;;;41.65;9.38;;;5.50;99.00;;;;;;5121075;27;20542;-80
2022/01/18 10:31:21;;;;;;;57.67;9.98;;;5.50;99.00;;;;;;5138173;27;20090;-80
2022/01/18 10:33:58;;;;;;;32.92;7.82;;;5.40;99.20;;;;;;5155527;27;20394;-80
2022/01/18 10:36:26;;;;;;;41.20;9.05;;;5.50;99.10;;;;;;5155328;27;20043;-79
2022/01/18 10:39:01;;;;;;;51.30;11.70;;;5.40;99.20;;;;;;5121176;27;20039;-79
2022/01/18 10:41:28;;;;;;;48.00;12.52;;;5.40;99.20;;;;;;5155037;27;20062;-79
2022/01/18 10:44:14;;;;;;;36.92;11.98;;;5.50;99.10;;;;;;5155238;27;20510;-79
2022/01/18 10:46:52;;;;;;;39.03;13.23;;;5.50;99.10;;;;;;5155060;27;20114;-78
2022/01/18 10:49:35;;;;;;;47.80;13.45;;;5.40;99.20;;;;;;5155047;27;20046;-79
2022/01/18 10:52:09;;;;;;;51.17;10.60;;;5.40;99.20;;;;;;5155310;27;20043;-79
2022/01/18 10:54:41;;;;;;;46.28;9.93;;;5.40;99.20;;;;;;5155114;27;20058;-79
2022/01/18 10:57:08;;;;;;;46.88;8.73;;;5.40;99.00;;;;;;5154803;27;20050;-79
2022/01/18 10:59:37;;;;;;;58.55;9.73;;;5.40;98.90;;;;;;5120681;27;20042;-80
2022/01/18 11:02:20;;;;;;;33.22;8.70;;;5.40;98.80;;;;;;5137881;27;20058;-80
2022/01/18 11:04:48;;;;;;;57.92;9.48;;;5.30;98.80;;;;;;5154817;27;20031;-80
2022/01/18 11:07:16;;;;;;;46.45;8.77;;;5.30;98.90;;;;;;5137353;27;20030;-80
2022/01/18 11:09:42;;;;;;;45.40;9.65;;;5.20;99.00;;;;;;5137330;27;20039;-80
2022/01/18 11:12:09;;;;;;;38.75;8.50;;;5.30;98.90;;;;;;5154597;27;20043;-78
2022/01/18 11:14:39;;;;;;;42.00;7.40;;;5.30;99.00;;;;;;5137392;27;20054;-79
2022/01/18 11:17:07;;;;;;;45.05;9.77;;;5.30;98.90;;;;;;5137892;27;20047;-79
2022/01/18 11:19:37;;;;;;;33.38;6.30;;;5.20;98.90;;;;;;5154474;27;20080;-80
2022/01/18 11:22:10;;;;;;;40.97;7.68;;;5.20;98.90;;;;;;5137557;27;20042;-78
2022/01/18 11:24:38;;;;;;;36.33;7.25;;;5.20;99.00;;;;;;5154663;27;20046;-78
2022/01/18 11:27:08;;;;;;;36.22;7.50;;;5.10;99.00;;;;;;5154528;27;20493;-79
2022/01/18 11:29:35;;;;;;;42.17;8.20;;;5.10;99.00;;;;;;5137033;27;20035;-79
2022/01/18 11:32:01;;;;;;;29.20;8.35;;;5.10;99.10;;;;;;5136969;27;20075;-79
2022/01/18 11:35:02;;;;;;;36.92;7.40;;;5.10;99.00;;;;;;5137061;27;20043;-79
2022/01/18 11:37:28;;;;;;;43.38;7.00;;;5.20;99.00;;;;;;5136703;27;20050;-79
2022/01/18 11:40:04;;;;;;;37.35;7.32;;;5.10;98.90;;;;;;5153822;27;20062;-79
2022/01/18 11:42:50;;;;;;;24.20;6.82;;;5.10;98.90;;;;;;5153931;27;20038;-79
2022/01/18 11:45:25;;;;;;;31.30;7.35;;;5.10;99.10;;;;;;5154048;27;20038;-78
2022/01/18 11:48:02;;;;;;;43.13;8.20;;;5.10;99.00;;;;;;5153997;27;20046;-79
2022/01/18 11:50:30;;;;;;;19.52;6.53;;;5.10;99.00;;;;;;5154204;27;20098;-79
2022/01/18 11:53:26;;;;;;;46.65;8.63;;;5.10;99.00;;;;;;5153811;27;20039;-78
2022/01/18 11:55:57;;;;;;;53.30;9.85;;;5.10;99.00;;;;;;5154154;27;20039;-78
2022/01/18 11:58:25;;;;;;;30.15;9.00;;;5.10;99.00;;;;;;5153555;27;20047;-78
2022/01/18 12:00:57;;;;;;;33.30;9.45;;;5.10;99.00;;;;;;5136336;27;20043;-78
2022/01/18 12:03:42;;;;;;;26.52;8.13;;;5.10;99.00;;;;;;5153891;27;20039;-78
2022/01/18 12:06:08;;;;;;;33.50;8.57;;;5.10;99.00;;;;;;5136392;27;20063;-78
2022/01/18 12:08:37;;;;;;;28.83;8.85;;;5.10;99.00;;;;;;5153429;27;20486;-78
2022/01/18 12:11:06;;;;;;;34.25;7.78;;;5.10;98.90;;;;;;5153596;27;20066;-78
2022/01/18 12:13:34;;;;;;;34.08;7.85;;;5.10;98.90;;;;;;5153509;27;20125;-78
2022/01/18 12:16:10;;;;;;;31.83;9.93;;;5.00;99.00;;;;;;5153443;27;20074;-77
2022/01/18 12:18:53;;;;;;;33.83;10.38;;;5.00;99.20;;;;;;5153537;27;20091;-78
2022/01/18 12:21:24;;;;;;;35.50;8.48;;;5.10;99.00;;;;;;5136158;27;20039;-78
2022/01/18 12:23:50;;;;;;;24.95;7.65;;;5.10;98.90;;;;;;5153800;27;20038;-78
2022/01/18 12:26:40;;;;;;;26.67;7.95;;;5.10;99.00;;;;;;5153621;27;20030;-78
2022/01/18 12:29:36;;;;;;;29.80;8.63;;;5.10;98.90;;;;;;5154519;27;20039;-79
2022/01/18 12:34:47;;;;;;;31.25;7.53;;;5.10;98.80;;;;;;5143568;27;20065;-79
2022/01/18 12:37:14;;;;;;;25.98;8.85;;;5.10;98.70;;;;;;5143016;27;20046;-81
2022/01/18 12:40:05;;;;;;;32.53;8.98;;;5.10;98.80;;;;;;5159919;27;20525;-78
2022/01/18 12:45:14;;;;;;;29.45;8.15;;;5.10;98.80;;;;;;5160218;27;20058;-78
2022/01/18 12:47:49;;;;;;;27.40;8.45;;;5.10;98.80;;;;;;5160080;27;20077;-78
2022/01/18 12:50:17;;;;;;;39.72;8.68;;;5.10;98.80;;;;;;5160345;27;20026;-78
2022/01/18 12:52:47;;;;;;;83.55;11.70;;;5.10;98.60;;;;;;5160321;27;20382;-78
2022/01/18 12:55:30;;;;;;;61.13;9.82;;;5.10;98.70;;;;;;5142816;27;20068;-78
2022/01/18 12:58:04;;;;;;;33.78;8.38;;;5.00;98.80;;;;;;5160241;27;20042;-78
2022/01/18 13:00:43;;;;;;;60.65;11.88;;;5.10;98.90;;;;;;5142771;27;20126;-78
2022/01/18 13:03:14;;;;;;;34.53;9.98;;;5.00;98.90;;;;;;5142804;27;20482;-78
2022/01/18 13:05:42;;;;;;;57.72;12.70;;;5.10;98.70;;;;;;5143783;27;20122;-79
2022/01/18 13:08:13;;;;;;;38.35;11.52;;;4.90;98.50;;;;;;5159885;27;20043;-79
2022/01/18 13:10:45;;;;;;;50.33;10.57;;;4.90;98.60;;;;;;5142646;27;20051;-81
2022/01/18 13:13:14;;;;;;;69.80;14.13;;;5.00;98.50;;;;;;5159859;27;20066;-81
2022/01/18 13:16:04;;;;;;;103.45;17.35;;;4.80;98.50;;;;;;5142886;27;20436;-81
2022/01/18 13:27:01;;;;;;;47.40;15.82;;;4.70;98.90;;;;;;5159704;27;20102;-78
2022/01/18 13:29:28;;;;;;;67.93;18.02;;;4.70;98.90;;;;;;5126471;27;20513;-78
2022/01/18 13:32:16;;;;;;;48.60;18.30;;;4.70;98.90;;;;;;5159948;27;20089;-78
2022/01/18 13:34:44;;;;;;;47.75;15.38;;;4.70;98.90;;;;;;5160009;27;20034;-78
2022/01/18 13:37:12;;;;;;;59.85;17.33;;;4.70;99.00;;;;;;5159581;27;20043;-78
2022/01/18 13:39:44;;;;;;;76.93;19.85;;;4.70;98.80;;;;;;5142403;27;20372;-78
2022/01/18 13:42:12;;;;;;;69.47;17.25;;;4.60;98.90;;;;;;5156712;27;20038;-76
2022/01/18 13:44:38;;;;;;;53.88;17.13;;;4.60;98.90;;;;;;5156273;27;20042;-77
2022/01/18 13:47:19;;;;;;;51.67;16.13;;;4.70;98.90;;;;;;5156157;27;20041;-77
2022/01/18 13:49:45;;;;;;;65.20;19.85;;;4.70;98.80;;;;;;5139397;27;20046;-78
2022/01/18 13:52:13;;;;;;;51.60;21.08;;;4.70;98.80;;;;;;5139133;27;20096;-78
2022/01/18 13:54:50;;;;;;;63.25;18.02;;;4.60;98.80;;;;;;5156191;27;20508;-78
2022/01/18 13:57:18;;;;;;;58.80;14.70;;;4.60;98.90;;;;;;5138661;27;20094;-78
2022/01/18 13:59:44;;;;;;;52.53;14.82;;;4.60;98.90;;;;;;5156369;27;20039;-78
2022/01/18 14:02:12;;;;;;;51.33;25.65;;;4.60;98.90;;;;;;5156097;27;20062;-78
2022/01/18 14:04:38;;;;;;;46.83;15.50;;;4.60;98.80;;;;;;5156232;27;20039;-78
2022/01/18 14:07:05;;;;;;;66.10;16.13;;;4.50;98.60;;;;;;5138495;27;20039;-79
2022/01/18 14:09:30;;;;;;;52.53;16.52;;;4.50;98.80;;;;;;5155820;27;20043;-78
2022/01/18 14:11:56;;;;;;;58.72;18.15;;;4.40;99.00;;;;;;5156102;27;20038;-79
2022/01/18 14:14:31;;;;;;;59.72;19.60;;;4.40;98.80;;;;;;5138838;27;20121;-78